createdAt,value
2023-01-15T00:01:42.004Z,97354.25
2023-01-15T00:03:43.945Z,97347.72
2023-01-15T00:05:45.701Z,97343.84
2023-01-15T00:07:48.454Z,97342.75
2023-01-15T00:09:50.488Z,97334.06
2023-01-15T00:11:51.954Z,97338.41
2023-01-15T00:13:53.674Z,97333.19
2023-01-15T00:16:01.877Z,97334.00
2023-01-15T00:18:07.005Z,97328.53
2023-01-15T00:20:09.587Z,97324.69
2023-01-15T00:22:11.070Z,97322.78
2023-01-15T00:24:31.119Z,97321.38
2023-01-15T00:26:52.215Z,97316.22
2023-01-15T00:28:53.839Z,97309.38
2023-01-15T00:30:55.387Z,97313.44
2023-01-15T00:32:58.869Z,97303.31
2023-01-15T00:35:04.083Z,97307.66
2023-01-15T00:37:14.624Z,97306.56
2023-01-15T00:39:18.250Z,97298.38
2023-01-15T00:41:21.611Z,97302.16
2023-01-15T00:43:23.955Z,97299.41
2023-01-15T00:45:25.449Z,97295.28
2023-01-15T00:47:27.433Z,97284.09
2023-01-15T00:49:28.985Z,97290.34
2023-01-15T00:51:33.326Z,97290.88
2023-01-15T00:53:35.053Z,97291.66
2023-01-15T00:55:36.642Z,97290.28
2023-01-15T00:57:38.246Z,97291.09
2023-01-15T00:59:39.941Z,97299.28
2023-01-15T01:01:44.275Z,97291.59
2023-01-15T01:03:50.225Z,97294.06
2023-01-15T01:05:51.786Z,97294.56
2023-01-15T01:07:53.547Z,97288.81
2023-01-15T01:09:55.059Z,97286.63
2023-01-15T01:11:56.708Z,97285.50
2023-01-15T01:13:58.421Z,97271.56
2023-01-15T01:16:00.861Z,97282.19
2023-01-15T01:18:04.284Z,97279.44
2023-01-15T01:20:06.996Z,97270.16
2023-01-15T01:22:08.750Z,97272.88
2023-01-15T01:24:12.487Z,97270.16
2023-01-15T01:26:14.371Z,97269.84
2023-01-15T01:28:16.160Z,97262.47
2023-01-15T01:30:20.016Z,97268.75
2023-01-15T01:32:21.624Z,97265.72
2023-01-15T01:34:26.365Z,97263.81
2023-01-15T01:36:32.100Z,97262.41
2023-01-15T01:38:33.731Z,97255.81
2023-01-15T01:40:35.509Z,97256.34
2023-01-15T01:42:40.048Z,97245.44
2023-01-15T01:44:44.072Z,97242.38
2023-01-15T01:46:45.764Z,97238.25
2023-01-15T01:48:50.607Z,97225.41
2023-01-15T01:50:57.132Z,97218.03
2023-01-15T01:53:06.610Z,97224.00
2023-01-15T01:55:09.634Z,97220.13
2023-01-15T01:57:11.607Z,97225.59
2023-01-15T01:59:13.486Z,97222.88
2023-01-15T02:01:15.665Z,97213.88
2023-01-15T02:03:20.130Z,97207.28
2023-01-15T02:05:30.588Z,97213.56
2023-01-15T02:07:33.485Z,97203.47
2023-01-15T02:09:35.076Z,97213.00
2023-01-15T02:11:36.859Z,97200.94
2023-01-15T02:13:41.192Z,97203.06
2023-01-15T02:15:53.058Z,97197.59
2023-01-15T02:18:07.127Z,97196.50
2023-01-15T02:20:22.494Z,97189.91
2023-01-15T02:22:44.602Z,97188.00
2023-01-15T02:25:08.274Z,97178.19
2023-01-15T02:27:16.387Z,97169.69
2023-01-15T02:29:41.917Z,97183.84
2023-01-15T02:31:49.996Z,97172.09
2023-01-15T02:34:03.545Z,97175.38
2023-01-15T02:36:08.838Z,97176.69
2023-01-15T02:38:16.916Z,97163.03
2023-01-15T02:40:24.447Z,97174.47
2023-01-15T02:42:29.399Z,97166.47
2023-01-15T02:44:35.701Z,97169.19
2023-01-15T02:46:39.061Z,97174.38
2023-01-15T02:48:47.478Z,97165.88
2023-01-15T02:50:55.835Z,97161.22
2023-01-15T02:53:05.516Z,97165.59
2023-01-15T02:55:22.624Z,97160.13
2023-01-15T02:57:33.632Z,97152.44
2023-01-15T02:59:39.179Z,97157.59
2023-01-15T03:01:46.903Z,97151.84
2023-01-15T03:04:10.256Z,97140.34
2023-01-15T03:06:36.619Z,97143.09
2023-01-15T03:08:40.752Z,97147.47
2023-01-15T03:11:03.484Z,97148.28
2023-01-15T03:13:14.718Z,97143.63
2023-01-15T03:15:46.327Z,97132.09
2023-01-15T03:17:54.132Z,97146.88
2023-01-15T03:20:06.688Z,97130.75
2023-01-15T03:22:26.007Z,97129.63
2023-01-15T03:24:33.298Z,97129.34
2023-01-15T03:26:35.154Z,97123.25
2023-01-15T03:28:42.537Z,97123.81
2023-01-15T03:30:44.241Z,97132.78
2023-01-15T03:32:49.097Z,97122.97
2023-01-15T03:34:56.444Z,97121.56
2023-01-15T03:36:58.904Z,97130.28
2023-01-15T03:39:03.996Z,97117.69
2023-01-15T03:42:03.074Z,97122.38
2023-01-15T03:44:23.729Z,97116.59
2023-01-15T03:46:44.234Z,97113.88
2023-01-15T03:49:04.309Z,97108.41
2023-01-15T03:51:18.200Z,97119.03
2023-01-15T03:53:49.558Z,97115.19
2023-01-15T03:56:03.467Z,97108.41
2023-01-15T03:58:17.677Z,97106.97
2023-01-15T04:00:35.963Z,97109.41
2023-01-15T04:02:39.694Z,97105.56
2023-01-15T04:04:43.195Z,97100.91
2023-01-15T04:06:45.658Z,97102.25
2023-01-15T04:08:51.339Z,97090.19
2023-01-15T04:10:56.092Z,97081.97
2023-01-15T04:13:00.322Z,97102.44
2023-01-15T04:15:02.065Z,97086.34
2023-01-15T04:17:07.871Z,97084.44
2023-01-15T04:19:09.770Z,97078.16
2023-01-15T04:21:14.478Z,97075.41
2023-01-15T04:23:16.630Z,97085.53
2023-01-15T04:25:18.383Z,97071.56
2023-01-15T04:27:19.964Z,97072.91
2023-01-15T04:29:21.653Z,97073.69
2023-01-15T04:31:23.567Z,97067.91
2023-01-15T04:33:25.732Z,97070.34
2023-01-15T04:35:27.516Z,97056.97
2023-01-15T04:37:29.210Z,97061.63
2023-01-15T04:39:31.498Z,97059.72
2023-01-15T04:41:51.546Z,97054.25
2023-01-15T04:44:08.486Z,97050.19
2023-01-15T04:46:10.219Z,97049.06
2023-01-15T04:48:12.903Z,97039.25
2023-01-15T04:50:14.489Z,97049.88
2023-01-15T04:52:16.312Z,97038.66
2023-01-15T04:54:18.272Z,97042.97
2023-01-15T04:56:19.878Z,97046.53
2023-01-15T04:58:21.321Z,97042.97
2023-01-15T05:00:24.377Z,97032.03
2023-01-15T05:02:26.903Z,97041.38
2023-01-15T05:04:28.627Z,97026.56
2023-01-15T05:06:33.406Z,97032.03
2023-01-15T05:08:35.947Z,97030.94
2023-01-15T05:10:37.519Z,97020.00
2023-01-15T05:12:39.151Z,97013.38
2023-01-15T05:14:43.838Z,97017.53
2023-01-15T05:16:45.545Z,97018.84
2023-01-15T05:18:48.170Z,97013.38
2023-01-15T05:20:51.501Z,97012.59
2023-01-15T05:22:53.047Z,97011.78
2023-01-15T05:24:55.409Z,97016.44
2023-01-15T05:26:58.401Z,97009.06
2023-01-15T05:29:00.951Z,97014.03
2023-01-15T05:31:15.009Z,97015.63
2023-01-15T05:33:16.553Z,97012.88
2023-01-15T05:35:25.369Z,97010.16
2023-01-15T05:37:30.107Z,97009.34
2023-01-15T05:39:31.619Z,97014.03
2023-01-15T05:41:52.766Z,97011.28
2023-01-15T05:44:03.516Z,97016.22
2023-01-15T05:46:05.363Z,97000.13
2023-01-15T05:48:07.290Z,97001.25
2023-01-15T05:50:09.789Z,97000.13
2023-01-15T05:52:11.563Z,97019.28
2023-01-15T05:54:22.532Z,97101.34
2023-01-15T05:56:24.257Z,97148.34
2023-01-15T05:58:28.422Z,97130.34
2023-01-15T06:00:30.631Z,97134.50
2023-01-15T06:02:32.299Z,97135.59
2023-01-15T06:04:34.020Z,97141.88
2023-01-15T06:06:35.955Z,97153.63
2023-01-15T06:08:37.547Z,97160.72
2023-01-15T06:10:38.994Z,97178.75
2023-01-15T06:12:43.495Z,97176.63
2023-01-15T06:14:45.084Z,97178.84
2023-01-15T06:16:47.142Z,97161.91
2023-01-15T06:18:48.799Z,97174.47
2023-01-15T06:20:50.604Z,97181.66
2023-01-15T06:22:52.487Z,97178.41
2023-01-15T06:24:54.009Z,97168.56
2023-01-15T06:26:55.730Z,97173.53
2023-01-15T06:28:57.352Z,97167.56
2023-01-15T06:30:58.968Z,97161.56
2023-01-15T06:33:10.245Z,97156.72
2023-01-15T06:35:15.651Z,97176.72
2023-01-15T06:37:17.398Z,97185.53
2023-01-15T06:39:21.989Z,97181.19
2023-01-15T06:41:45.453Z,97199.28
2023-01-15T06:44:05.731Z,97204.53
2023-01-15T06:46:28.224Z,97200.47
2023-01-15T06:48:30.033Z,97228.72
2023-01-15T06:50:31.756Z,97216.47
2023-01-15T06:52:33.408Z,97223.34
2023-01-15T06:54:35.217Z,97219.56
2023-01-15T06:56:36.812Z,97217.41
2023-01-15T06:58:38.527Z,97217.72
2023-01-15T07:00:43.241Z,97220.22
2023-01-15T07:02:45.160Z,97240.75
2023-01-15T07:04:47.729Z,97247.09
2023-01-15T07:06:49.350Z,97242.22
2023-01-15T07:08:50.969Z,97235.16
2023-01-15T07:10:52.662Z,97235.22
2023-01-15T07:12:54.351Z,97244.81
2023-01-15T07:14:58.604Z,97248.66
2023-01-15T07:17:00.456Z,97250.34
2023-01-15T07:19:06.126Z,97262.69
2023-01-15T07:21:07.594Z,97267.63
2023-01-15T07:23:09.136Z,97269.03
2023-01-15T07:25:10.683Z,97268.22
2023-01-15T07:27:12.541Z,97271.53
2023-01-15T07:29:15.926Z,97281.94
2023-01-15T07:31:17.589Z,97276.75
2023-01-15T07:33:19.158Z,97294.53
2023-01-15T07:35:20.662Z,97297.03
2023-01-15T07:37:22.155Z,97304.72
2023-01-15T07:39:23.829Z,97298.72
2023-01-15T07:41:44.069Z,97298.50
2023-01-15T07:44:04.782Z,97308.91
2023-01-15T07:46:28.975Z,97301.03
2023-01-15T07:48:49.269Z,97309.22
2023-01-15T07:50:50.719Z,97316.38
2023-01-15T07:52:54.843Z,97325.97
2023-01-15T07:54:56.415Z,97337.97
2023-01-15T07:56:58.134Z,97348.38
2023-01-15T07:58:59.705Z,97362.84
2023-01-15T08:01:01.402Z,97369.97
2023-01-15T08:03:03.800Z,97375.72
2023-01-15T08:05:09.576Z,97382.28
2023-01-15T08:07:12.914Z,97389.94
2023-01-15T08:09:14.683Z,97388.34
2023-01-15T08:11:34.888Z,97389.72
2023-01-15T08:13:55.172Z,97394.59
2023-01-15T08:15:56.860Z,97403.38
2023-01-15T08:17:58.385Z,97407.50
2023-01-15T08:20:00.107Z,97415.13
2023-01-15T08:22:01.967Z,97411.88
2023-01-15T08:24:03.906Z,97411.34
2023-01-15T08:26:06.195Z,97422.03
2023-01-15T08:28:08.795Z,97414.13
2023-01-15T08:30:21.108Z,97412.50
2023-01-15T08:32:26.114Z,97408.16
2023-01-15T08:34:27.885Z,97420.97
2023-01-15T08:36:29.654Z,97423.19
2023-01-15T08:38:31.568Z,97417.97
2023-01-15T08:40:33.895Z,97433.84
2023-01-15T08:42:39.073Z,97445.31
2023-01-15T08:44:40.657Z,97450.75
2023-01-15T08:46:42.587Z,97442.06
2023-01-15T08:48:48.397Z,97425.16
2023-01-15T08:50:50.929Z,97425.41
2023-01-15T08:52:52.637Z,97415.88
2023-01-15T08:54:54.362Z,97424.38
2023-01-15T08:56:55.847Z,97443.75
2023-01-15T08:58:57.639Z,97462.03
2023-01-15T09:01:11.854Z,97457.97
2023-01-15T09:03:13.680Z,97460.94
2023-01-15T09:05:15.338Z,97462.31
2023-01-15T09:07:17.008Z,97466.44
2023-01-15T09:09:22.622Z,97474.91
2023-01-15T09:11:24.234Z,97486.63
2023-01-15T09:13:27.538Z,97480.38
2023-01-15T09:15:30.893Z,97493.19
2023-01-15T09:17:33.047Z,97494.28
2023-01-15T09:19:34.781Z,97501.91
2023-01-15T09:21:36.170Z,97519.09
2023-01-15T09:23:38.134Z,97509.56
2023-01-15T09:25:39.765Z,97524.03
2023-01-15T09:27:41.380Z,97525.09
2023-01-15T09:29:42.910Z,97520.75
2023-01-15T09:31:44.519Z,97525.41
2023-01-15T09:33:48.483Z,97524.56
2023-01-15T09:35:50.505Z,97516.69
2023-01-15T09:37:55.647Z,97511.50
2023-01-15T09:39:57.976Z,97528.97
2023-01-15T09:42:24.390Z,97531.16
2023-01-15T09:45:00.298Z,97517.25
2023-01-15T09:47:16.693Z,97531.19
2023-01-15T09:49:36.276Z,97540.75
2023-01-15T09:51:56.402Z,97549.72
2023-01-15T09:54:07.031Z,97548.34
2023-01-15T09:56:19.702Z,97551.38
2023-01-15T09:58:36.461Z,97551.66
2023-01-15T10:00:41.050Z,97560.09
2023-01-15T10:02:55.379Z,97558.50
2023-01-15T10:05:19.939Z,97555.19
2023-01-15T10:07:53.728Z,97563.13
2023-01-15T10:10:02.260Z,97567.75
2023-01-15T10:12:43.350Z,97563.97
2023-01-15T10:15:01.721Z,97572.69
2023-01-15T10:17:03.274Z,97564.50
2023-01-15T10:19:04.934Z,97576.25
2023-01-15T10:21:30.159Z,97573.22
2023-01-15T10:24:02.732Z,97573.53
2023-01-15T10:26:16.831Z,97586.88
2023-01-15T10:28:21.325Z,97580.88
2023-01-15T10:30:40.037Z,97575.69
2023-01-15T10:33:01.603Z,97589.59
2023-01-15T10:35:27.716Z,97599.97
2023-01-15T10:37:47.135Z,97600.50
2023-01-15T10:40:17.241Z,97602.69
2023-01-15T10:42:50.260Z,97597.78
2023-01-15T10:45:20.719Z,97590.69
2023-01-15T10:47:30.497Z,97585.81
2023-01-15T10:49:41.191Z,97585.81
2023-01-15T10:51:56.506Z,97593.16
2023-01-15T10:54:26.238Z,97594.25
2023-01-15T10:56:37.487Z,97606.50
2023-01-15T10:59:11.709Z,97603.25
2023-01-15T11:01:21.410Z,97598.88
2023-01-15T11:03:36.571Z,97600.00
2023-01-15T11:05:49.221Z,97606.50
2023-01-15T11:10:17.649Z,97616.59
2023-01-15T11:12:20.493Z,97617.94
2023-01-15T11:14:55.257Z,97616.34
2023-01-15T11:17:11.472Z,97605.69
2023-01-15T11:19:42.205Z,97596.72
2023-01-15T11:21:43.991Z,97592.34
2023-01-15T11:23:47.839Z,97601.59
2023-01-15T11:25:55.830Z,97599.69
2023-01-15T11:27:59.982Z,97596.16
2023-01-15T11:30:03.646Z,97603.25
2023-01-15T11:32:31.310Z,97610.88
2023-01-15T11:34:41.832Z,97617.41
2023-01-15T11:36:43.518Z,97600.53
2023-01-15T11:38:47.793Z,97604.88
2023-01-15T11:40:54.927Z,97610.31
2023-01-15T11:43:14.957Z,97614.69
2023-01-15T11:45:38.883Z,97624.50
2023-01-15T11:48:28.939Z,97613.84
2023-01-15T11:50:45.645Z,97604.59
2023-01-15T11:52:55.103Z,97602.16
2023-01-15T11:55:00.552Z,97613.03
2023-01-15T11:57:02.480Z,97616.34
2023-01-15T11:59:12.195Z,97608.16
2023-01-15T12:01:36.733Z,97599.69
2023-01-15T12:03:40.982Z,97606.78
2023-01-15T12:06:02.796Z,97604.91
2023-01-15T12:08:22.253Z,97603.78
2023-01-15T12:10:55.939Z,97610.88
2023-01-15T12:13:11.603Z,97614.69
2023-01-15T12:15:46.417Z,97626.13
2023-01-15T12:18:17.894Z,97621.78
2023-01-15T12:20:38.208Z,97633.50
2023-01-15T12:22:39.841Z,97649.28
2023-01-15T12:24:49.122Z,97654.47
2023-01-15T12:27:16.789Z,97671.88
2023-01-15T12:29:27.363Z,97674.06
2023-01-15T12:31:42.623Z,97675.44
2023-01-15T12:34:24.341Z,97675.69
2023-01-15T12:36:32.482Z,97671.06
2023-01-15T12:39:04.177Z,97679.75
2023-01-15T12:41:16.081Z,97682.75
2023-01-15T12:43:45.127Z,97672.41
2023-01-15T12:45:54.318Z,97675.66
2023-01-15T12:48:30.123Z,97676.22
2023-01-15T12:50:51.992Z,97665.88
2023-01-15T12:53:09.244Z,97679.75
2023-01-15T12:55:22.472Z,97682.75
2023-01-15T12:57:36.702Z,97680.28
2023-01-15T12:59:50.444Z,97680.53
2023-01-15T13:02:11.022Z,97666.06
2023-01-15T13:04:17.534Z,97665.00
2023-01-15T13:06:19.548Z,97671.53
2023-01-15T13:08:38.039Z,97670.97
2023-01-15T13:10:44.127Z,97673.16
2023-01-15T13:12:45.919Z,97686.78
2023-01-15T13:14:47.567Z,97698.47
2023-01-15T13:17:10.672Z,97693.56
2023-01-15T13:19:21.288Z,97694.09
2023-01-15T13:21:26.261Z,97702.25
2023-01-15T13:23:35.761Z,97710.72
2023-01-15T13:26:12.702Z,97713.69
2023-01-15T13:28:47.090Z,97718.03
2023-01-15T13:31:03.222Z,97723.75
2023-01-15T13:33:25.090Z,97733.81
2023-01-15T13:35:35.715Z,97732.16
2023-01-15T13:37:46.250Z,97734.34
2023-01-15T13:39:51.010Z,97751.75
2023-01-15T13:42:16.002Z,97750.13
2023-01-15T13:44:17.768Z,97759.38
2023-01-15T13:46:21.255Z,97755.03
2023-01-15T13:48:37.387Z,97764.00
2023-01-15T13:50:51.288Z,97773.50
2023-01-15T13:53:01.582Z,97772.44
2023-01-15T13:55:43.640Z,97782.50
2023-01-15T13:57:45.592Z,97789.81
2023-01-15T13:59:47.725Z,97790.66
2023-01-15T14:01:49.430Z,97787.38
2023-01-15T14:04:15.106Z,97781.94
2023-01-15T14:06:16.744Z,97782.22
2023-01-15T14:08:27.013Z,97792.28
2023-01-15T14:10:31.910Z,97795.25
2023-01-15T14:12:59.771Z,97796.88
2023-01-15T14:15:29.032Z,97795.81
2023-01-15T14:18:18.808Z,97800.41
2023-01-15T14:20:39.348Z,97790.88
2023-01-15T14:22:43.891Z,97790.06
2023-01-15T14:25:05.091Z,97791.13
2023-01-15T14:28:02.179Z,97799.56
2023-01-15T14:30:36.368Z,97806.06
2023-01-15T14:32:54.580Z,97801.72
2023-01-15T14:35:01.487Z,97799.00
2023-01-15T14:37:15.314Z,97795.75
2023-01-15T14:39:26.249Z,97801.97
2023-01-15T14:41:32.227Z,97807.19
2023-01-15T14:43:37.875Z,97818.06
2023-01-15T14:45:47.844Z,97826.47
2023-01-15T14:48:27.748Z,97827.56
2023-01-15T14:50:39.406Z,97833.84
2023-01-15T14:52:45.529Z,97821.28
2023-01-15T14:54:50.274Z,97828.63
2023-01-15T14:56:59.701Z,97835.19
2023-01-15T14:59:25.985Z,97828.91
2023-01-15T15:01:44.627Z,97824.28
2023-01-15T15:04:19.865Z,97823.97
2023-01-15T15:06:25.410Z,97825.06
2023-01-15T15:08:32.062Z,97825.06
2023-01-15T15:10:40.161Z,97831.59
2023-01-15T15:13:06.161Z,97827.22
2023-01-15T15:15:21.790Z,97830.22
2023-01-15T15:17:54.031Z,97828.56
2023-01-15T15:20:08.163Z,97826.94
2023-01-15T15:22:16.287Z,97833.44
2023-01-15T15:24:35.169Z,97836.44
2023-01-15T15:26:40.216Z,97836.44
2023-01-15T15:28:54.795Z,97840.22
2023-01-15T15:31:01.367Z,97834.25
2023-01-15T15:33:06.896Z,97833.69
2023-01-15T15:35:26.158Z,97837.47
2023-01-15T15:37:28.692Z,97843.19
2023-01-15T15:39:57.451Z,97838.25
2023-01-15T15:42:24.021Z,97839.59
2023-01-15T15:45:03.156Z,97844.72
2023-01-15T15:47:44.222Z,97850.13
2023-01-15T15:49:45.822Z,97848.75
2023-01-15T15:51:49.045Z,97843.59
2023-01-15T15:53:50.952Z,97846.53
2023-01-15T15:55:55.304Z,97855.25
2023-01-15T15:58:01.948Z,97843.78
2023-01-15T16:00:06.771Z,97849.50
2023-01-15T16:02:20.939Z,97851.91
2023-01-15T16:04:24.278Z,97849.72
2023-01-15T16:06:27.680Z,97843.69
2023-01-15T16:08:33.660Z,97848.56
2023-01-15T16:10:35.369Z,97850.75
2023-01-15T16:12:44.421Z,97843.09
2023-01-15T16:14:46.874Z,97835.22
2023-01-15T16:16:55.045Z,97830.53
2023-01-15T16:18:59.774Z,97834.59
2023-01-15T16:21:01.882Z,97833.19
2023-01-15T16:23:05.522Z,97832.66
2023-01-15T16:25:28.566Z,97826.91
2023-01-15T16:27:35.774Z,97838.03
2023-01-15T16:29:37.770Z,97844.56
2023-01-15T16:31:39.410Z,97849.41
2023-01-15T16:33:41.228Z,97848.03
2023-01-15T16:35:42.807Z,97851.00
2023-01-15T16:37:49.034Z,97849.34
2023-01-15T16:39:53.342Z,97849.63
2023-01-15T16:41:57.687Z,97855.31
2023-01-15T16:44:06.935Z,97847.41
2023-01-15T16:46:20.528Z,97843.31
2023-01-15T16:48:30.920Z,97846.28
2023-01-15T16:50:37.596Z,97854.13
2023-01-15T16:52:53.753Z,97853.81
2023-01-15T16:54:56.816Z,97857.34
2023-01-15T16:57:22.255Z,97864.94
2023-01-15T16:59:26.948Z,97870.88
2023-01-15T17:01:42.024Z,97869.25
2023-01-15T17:03:44.311Z,97873.84
2023-01-15T17:05:48.812Z,97869.75
2023-01-15T17:07:53.853Z,97857.50
2023-01-15T17:09:59.081Z,97866.47
2023-01-15T17:12:09.349Z,97859.66
2023-01-15T17:14:25.398Z,97850.13
2023-01-15T17:16:27.014Z,97841.41
2023-01-15T17:18:29.770Z,97834.31
2023-01-15T17:20:36.023Z,97850.06
2023-01-15T17:22:37.651Z,97842.16
2023-01-15T17:24:47.443Z,97841.34
2023-01-15T17:26:49.140Z,97836.44
2023-01-15T17:28:51.039Z,97839.34
2023-01-15T17:31:04.375Z,97843.97
2023-01-15T17:33:08.622Z,97840.66
2023-01-15T17:35:32.013Z,97838.22
2023-01-15T17:37:33.686Z,97830.34
2023-01-15T17:39:41.376Z,97834.13
2023-01-15T17:41:45.169Z,97826.25
2023-01-15T17:43:50.511Z,97833.00
2023-01-15T17:45:52.314Z,97826.75
2023-01-15T17:47:54.378Z,97830.53
2023-01-15T17:49:59.436Z,97821.00
2023-01-15T17:52:05.642Z,97832.09
2023-01-15T17:54:08.829Z,97827.75
2023-01-15T17:56:29.144Z,97832.66
2023-01-15T17:58:49.492Z,97829.41
2023-01-15T18:01:12.379Z,97825.84
2023-01-15T18:03:37.607Z,97828.00
2023-01-15T18:05:41.468Z,97826.34
2023-01-15T18:07:46.247Z,97825.28
2023-01-15T18:09:52.979Z,97831.78
2023-01-15T18:11:57.249Z,97817.66
2023-01-15T18:14:02.724Z,97818.72
2023-01-15T18:16:04.376Z,97822.53
2023-01-15T18:18:06.007Z,97822.53
2023-01-15T18:20:08.301Z,97820.88
2023-01-15T18:22:11.918Z,97818.41
2023-01-15T18:24:13.476Z,97823.00
2023-01-15T18:26:15.975Z,97818.91
2023-01-15T18:28:17.904Z,97814.56
2023-01-15T18:30:20.007Z,97822.47
2023-01-15T18:32:21.641Z,97820.25
2023-01-15T18:34:23.247Z,97819.19
2023-01-15T18:36:27.923Z,97822.94
2023-01-15T18:38:35.594Z,97814.81
2023-01-15T18:40:37.264Z,97815.31
2023-01-15T18:42:58.105Z,97822.63
2023-01-15T18:45:18.450Z,97810.16
2023-01-15T18:47:20.172Z,97812.03
2023-01-15T18:49:22.072Z,97819.63
2023-01-15T18:51:25.263Z,97820.44
2023-01-15T18:53:26.811Z,97823.38
2023-01-15T18:55:28.660Z,97815.25
2023-01-15T18:57:32.637Z,97819.03
2023-01-15T18:59:34.197Z,97812.22
2023-01-15T19:01:39.880Z,97811.41
2023-01-15T19:03:41.691Z,97813.56
2023-01-15T19:05:43.499Z,97801.06
2023-01-15T19:07:48.348Z,97806.47
2023-01-15T19:09:49.983Z,97798.59
2023-01-15T19:11:52.626Z,97810.25
2023-01-15T19:14:13.122Z,97801.00
2023-01-15T19:16:33.656Z,97800.44
2023-01-15T19:18:52.549Z,97794.19
2023-01-15T19:20:54.134Z,97795.22
2023-01-15T19:22:58.752Z,97793.84
2023-01-15T19:25:00.386Z,97791.13
2023-01-15T19:27:03.319Z,97790.31
2023-01-15T19:29:05.290Z,97789.25
2023-01-15T19:31:26.765Z,97782.16
2023-01-15T19:33:29.005Z,97784.88
2023-01-15T19:35:31.769Z,97781.38
2023-01-15T19:37:39.218Z,97781.94
2023-01-15T19:39:40.935Z,97775.69
2023-01-15T19:42:01.373Z,97781.66
2023-01-15T19:44:21.908Z,97777.06
2023-01-15T19:46:42.456Z,97771.66
2023-01-15T19:49:02.604Z,97768.94
2023-01-15T19:51:05.389Z,97775.19
2023-01-15T19:53:08.544Z,97778.72
2023-01-15T19:55:11.227Z,97774.09
2023-01-15T19:57:12.839Z,97772.22
2023-01-15T19:59:14.931Z,97767.63
2023-01-15T20:01:17.618Z,97763.00
2023-01-15T20:03:19.830Z,97766.78
2023-01-15T20:05:23.327Z,97771.16
2023-01-15T20:07:25.014Z,97773.03
2023-01-15T20:09:26.584Z,97771.38
2023-01-15T20:11:48.173Z,97765.41
2023-01-15T20:13:51.398Z,97762.44
2023-01-15T20:15:53.173Z,97764.06
2023-01-15T20:17:55.648Z,97765.16
2023-01-15T20:19:57.877Z,97761.88
2023-01-15T20:21:59.413Z,97755.63
2023-01-15T20:24:01.283Z,97751.84
2023-01-15T20:26:06.488Z,97762.69
2023-01-15T20:28:07.979Z,97753.72
2023-01-15T20:30:14.913Z,97752.34
2023-01-15T20:32:16.611Z,97749.38
2023-01-15T20:34:19.190Z,97750.44
2023-01-15T20:36:21.130Z,97733.34
2023-01-15T20:38:26.569Z,97735.28
2023-01-15T20:40:28.522Z,97731.72
2023-01-15T20:42:54.658Z,97734.69
2023-01-15T20:44:56.724Z,97727.88
2023-01-15T20:46:59.170Z,97729.78
2023-01-15T20:49:19.442Z,97738.16
2023-01-15T20:51:23.832Z,97728.97
2023-01-15T20:53:25.334Z,97723.75
2023-01-15T20:55:57.067Z,97716.47
2023-01-15T20:57:59.673Z,97718.09
2023-01-15T21:00:02.431Z,97715.97
2023-01-15T21:02:04.027Z,97714.06
2023-01-15T21:04:06.591Z,97714.91
2023-01-15T21:06:09.300Z,97717.59
2023-01-15T21:08:11.604Z,97712.19
2023-01-15T21:10:13.994Z,97715.47
2023-01-15T21:12:16.127Z,97714.63
2023-01-15T21:14:17.922Z,97705.44
2023-01-15T21:16:19.644Z,97706.50
2023-01-15T21:18:22.249Z,97703.78
2023-01-15T21:20:26.661Z,97701.91
2023-01-15T21:22:30.642Z,97706.22
2023-01-15T21:24:35.783Z,97709.22
2023-01-15T21:26:37.292Z,97695.66
2023-01-15T21:28:38.903Z,97695.66
2023-01-15T21:30:44.210Z,97701.06
2023-01-15T21:32:48.687Z,97693.50
2023-01-15T21:34:50.381Z,97695.66
2023-01-15T21:36:52.206Z,97688.84
2023-01-15T21:38:58.733Z,97678.81
2023-01-15T21:41:10.130Z,97679.06
2023-01-15T21:43:30.696Z,97675.28
2023-01-15T21:45:33.026Z,97682.59
2023-01-15T21:47:37.749Z,97682.59
2023-01-15T21:49:40.359Z,97675.28
2023-01-15T21:51:41.958Z,97667.16
2023-01-15T21:53:43.545Z,97674.44
2023-01-15T21:55:52.015Z,97665.50
2023-01-15T21:57:53.645Z,97669.59
2023-01-15T21:59:56.468Z,97663.38
2023-01-15T22:01:59.241Z,97665.50
2023-01-15T22:04:01.141Z,97651.16
2023-01-15T22:06:17.411Z,97655.75
2023-01-15T22:08:21.036Z,97657.88
2023-01-15T22:10:23.143Z,97660.34
2023-01-15T22:12:24.772Z,97655.19
2023-01-15T22:14:33.207Z,97654.59
2023-01-15T22:16:34.825Z,97649.44
2023-01-15T22:18:36.721Z,97649.44
2023-01-15T22:20:38.297Z,97651.59
2023-01-15T22:22:40.290Z,97655.13
2023-01-15T22:24:41.834Z,97656.44
2023-01-15T22:26:44.241Z,97653.75
2023-01-15T22:28:46.431Z,97649.38
2023-01-15T22:30:48.047Z,97643.41
2023-01-15T22:32:54.545Z,97644.44
2023-01-15T22:34:56.101Z,97648.25
2023-01-15T22:36:57.776Z,97647.44
2023-01-15T22:38:59.295Z,97644.94
2023-01-15T22:41:01.352Z,97643.56
2023-01-15T22:43:02.975Z,97643.84
2023-01-15T22:45:04.988Z,97640.56
2023-01-15T22:47:06.852Z,97637.03
2023-01-15T22:49:08.470Z,97638.09
2023-01-15T22:51:10.182Z,97643.78
2023-01-15T22:53:11.726Z,97625.84
2023-01-15T22:55:14.345Z,97623.41
2023-01-15T22:57:22.561Z,97628.00
2023-01-15T22:59:24.686Z,97629.09
2023-01-15T23:01:26.355Z,97620.97
2023-01-15T23:03:31.505Z,97616.88
2023-01-15T23:05:39.416Z,97612.25
2023-01-15T23:07:41.572Z,97610.63
2023-01-15T23:09:43.126Z,97600.03
2023-01-15T23:11:46.194Z,97601.13
2023-01-15T23:13:48.311Z,97600.28
2023-01-15T23:16:00.492Z,97603.25
2023-01-15T23:18:05.511Z,97592.66
2023-01-15T23:20:12.373Z,97591.84
2023-01-15T23:22:16.077Z,97583.69
2023-01-15T23:24:17.997Z,97582.09
2023-01-15T23:26:24.556Z,97577.16
2023-01-15T23:28:26.340Z,97577.16
2023-01-15T23:30:27.890Z,97570.91
2023-01-15T23:32:32.122Z,97558.69
2023-01-15T23:34:33.934Z,97553.53
2023-01-15T23:36:35.479Z,97558.13
2023-01-15T23:38:37.235Z,97548.88
2023-01-15T23:40:40.049Z,97544.53
2023-01-15T23:43:00.337Z,97541.25
2023-01-15T23:45:20.915Z,97543.97
2023-01-15T23:47:22.446Z,97533.38
2023-01-15T23:49:24.104Z,97525.25
2023-01-15T23:51:26.116Z,97516.00
2023-01-15T23:53:27.961Z,97524.13
2023-01-15T23:55:29.485Z,97514.63
2023-01-15T23:57:31.515Z,97514.34
2023-01-15T23:59:33.087Z,97510.59
